createdAt,value
2022-08-07T00:00:44.897Z,14.80
2022-08-07T00:03:40.194Z,14.70
2022-08-07T00:06:51.130Z,14.70
2022-08-07T00:09:59.213Z,14.60
2022-08-07T00:12:57.796Z,14.60
2022-08-07T00:15:51.283Z,14.60
2022-08-07T00:18:39.849Z,14.60
2022-08-07T00:21:56.195Z,14.60
2022-08-07T00:24:38.602Z,14.50
2022-08-07T00:27:27.757Z,14.50
2022-08-07T00:30:36.888Z,14.60
2022-08-07T00:33:28.265Z,14.40
2022-08-07T00:36:16.818Z,14.40
2022-08-07T00:39:05.199Z,14.30
2022-08-07T00:42:02.293Z,14.30
2022-08-07T00:44:54.272Z,14.20
2022-08-07T00:48:09.740Z,14.10
2022-08-07T00:50:53.902Z,14.00
2022-08-07T00:53:50.260Z,14.00
2022-08-07T00:56:38.904Z,13.90
2022-08-07T00:59:35.553Z,13.90
2022-08-07T01:02:28.903Z,13.90
2022-08-07T01:05:20.905Z,13.80
2022-08-07T01:08:12.765Z,13.70
2022-08-07T01:11:23.656Z,13.70
2022-08-07T01:14:09.501Z,13.70
2022-08-07T01:16:57.886Z,13.60
2022-08-07T01:19:54.390Z,13.60
2022-08-07T01:22:58.450Z,13.60
2022-08-07T01:25:56.181Z,13.60
2022-08-07T01:28:45.884Z,13.50
2022-08-07T01:31:42.499Z,13.50
2022-08-07T01:34:34.746Z,13.50
2022-08-07T01:37:22.744Z,13.50
2022-08-07T01:40:15.577Z,13.50
2022-08-07T01:43:04.002Z,13.40
2022-08-07T01:45:54.470Z,13.40
2022-08-07T01:48:46.762Z,13.40
2022-08-07T01:52:01.600Z,13.30
2022-08-07T01:54:47.008Z,13.30
2022-08-07T01:58:01.593Z,13.30
2022-08-07T02:00:51.390Z,13.30
2022-08-07T02:03:57.429Z,13.20
2022-08-07T02:06:46.348Z,13.20
2022-08-07T02:09:53.123Z,13.20
2022-08-07T02:12:50.308Z,13.10
2022-08-07T02:15:41.010Z,13.10
2022-08-07T02:18:31.890Z,13.10
2022-08-07T02:21:20.781Z,13.10
2022-08-07T02:24:09.711Z,13.10
2022-08-07T02:27:00.105Z,13.10
2022-08-07T02:29:54.100Z,13.00
2022-08-07T02:33:08.902Z,13.00
2022-08-07T02:36:28.205Z,13.00
2022-08-07T02:39:16.451Z,13.00
2022-08-07T02:42:10.077Z,13.00
2022-08-07T02:45:57.707Z,12.90
2022-08-07T02:48:15.538Z,12.90
2022-08-07T02:51:14.197Z,12.90
2022-08-07T02:54:17.656Z,12.90
2022-08-07T02:57:06.802Z,12.80
2022-08-07T03:00:01.148Z,12.80
2022-08-07T03:02:55.537Z,12.80
2022-08-07T03:05:45.383Z,12.70
2022-08-07T03:08:34.418Z,12.70
2022-08-07T03:11:25.302Z,12.70
2022-08-07T03:14:16.704Z,12.70
2022-08-07T03:17:08.807Z,12.70
2022-08-07T03:19:58.324Z,12.70
2022-08-07T03:22:50.191Z,12.60
2022-08-07T03:25:41.946Z,12.60
2022-08-07T03:28:38.258Z,12.60
2022-08-07T03:31:42.430Z,12.50
2022-08-07T03:34:34.011Z,12.50
2022-08-07T03:37:32.497Z,12.50
2022-08-07T03:40:22.302Z,12.40
2022-08-07T03:43:14.549Z,12.40
2022-08-07T03:46:04.114Z,12.40
2022-08-07T03:49:02.394Z,12.40
2022-08-07T03:51:57.347Z,12.30
2022-08-07T03:54:54.063Z,12.40
2022-08-07T03:58:35.082Z,12.30
2022-08-07T04:00:58.243Z,12.30
2022-08-07T04:03:53.421Z,12.30
2022-08-07T04:06:44.162Z,12.20
2022-08-07T04:09:45.405Z,12.20
2022-08-07T04:12:39.912Z,12.40
2022-08-07T04:15:28.781Z,12.20
2022-08-07T04:18:59.890Z,12.20
2022-08-07T04:21:25.580Z,12.20
2022-08-07T04:24:30.326Z,12.20
2022-08-07T04:30:35.817Z,12.20
2022-08-07T04:33:26.587Z,12.20
2022-08-07T04:36:15.753Z,12.20
2022-08-07T04:39:11.199Z,12.20
2022-08-07T04:42:03.310Z,12.20
2022-08-07T04:44:54.382Z,12.20
2022-08-07T04:48:10.731Z,12.20
2022-08-07T04:51:06.461Z,12.20
2022-08-07T04:54:06.067Z,12.30
2022-08-07T04:58:09.383Z,12.30
2022-08-07T05:00:30.167Z,12.30
2022-08-07T05:04:00.957Z,12.30
2022-08-07T05:06:43.330Z,12.40
2022-08-07T05:09:45.293Z,12.40
2022-08-07T05:12:46.321Z,12.40
2022-08-07T05:15:48.367Z,12.40
2022-08-07T05:18:47.222Z,12.50
2022-08-07T05:22:00.134Z,12.50
2022-08-07T05:24:47.009Z,12.60
2022-08-07T05:28:23.021Z,12.60
2022-08-07T05:31:14.662Z,12.70
2022-08-07T05:34:13.208Z,12.80
2022-08-07T05:37:05.910Z,12.80
2022-08-07T05:40:13.746Z,12.90
2022-08-07T05:43:04.604Z,12.90
2022-08-07T05:46:01.362Z,13.00
2022-08-07T05:48:58.574Z,13.10
2022-08-07T05:51:49.299Z,13.10
2022-08-07T05:54:53.717Z,13.20
2022-08-07T05:57:47.930Z,13.20
2022-08-07T06:00:40.203Z,13.30
2022-08-07T06:03:53.908Z,13.30
2022-08-07T06:06:38.359Z,13.40
2022-08-07T06:10:03.721Z,13.40
2022-08-07T06:12:44.596Z,13.50
2022-08-07T06:15:39.015Z,13.50
2022-08-07T06:18:31.282Z,13.60
2022-08-07T06:22:14.760Z,13.70
2022-08-07T06:24:46.080Z,13.80
2022-08-07T06:27:43.990Z,13.90
2022-08-07T06:30:46.197Z,13.90
2022-08-07T06:33:41.019Z,14.10
2022-08-07T06:36:35.412Z,14.20
2022-08-07T06:40:16.631Z,14.20
2022-08-07T06:42:37.637Z,14.30
2022-08-07T06:45:28.510Z,14.40
2022-08-07T06:48:24.944Z,14.60
2022-08-07T06:51:24.577Z,14.70
2022-08-07T06:55:32.930Z,14.70
2022-08-07T06:57:43.460Z,14.80
2022-08-07T07:00:42.436Z,15.00
2022-08-07T07:03:47.632Z,15.10
2022-08-07T07:06:57.204Z,15.10
2022-08-07T07:09:46.923Z,15.20
2022-08-07T07:12:41.681Z,15.30
2022-08-07T07:15:51.669Z,15.40
2022-08-07T07:18:48.341Z,15.50
2022-08-07T07:22:11.738Z,15.60
2022-08-07T07:25:02.329Z,15.70
2022-08-07T07:28:02.145Z,15.80
2022-08-07T07:31:03.326Z,15.90
2022-08-07T07:33:57.365Z,16.00
2022-08-07T07:36:52.709Z,16.10
2022-08-07T07:39:52.086Z,16.20
2022-08-07T07:42:47.197Z,16.30
2022-08-07T07:46:39.873Z,16.40
2022-08-07T07:49:00.243Z,16.60
2022-08-07T07:52:03.570Z,16.70
2022-08-07T07:54:57.819Z,16.80
2022-08-07T07:57:52.844Z,16.90
2022-08-07T08:00:45.736Z,17.00
2022-08-07T08:04:10.573Z,17.10
2022-08-07T08:06:54.582Z,17.20
2022-08-07T08:09:52.303Z,17.40
2022-08-07T08:12:59.859Z,17.50
2022-08-07T08:15:58.133Z,17.60
2022-08-07T08:18:54.827Z,17.70
2022-08-07T08:22:08.072Z,17.80
2022-08-07T08:25:41.892Z,17.90
2022-08-07T08:28:37.602Z,18.00
2022-08-07T08:32:17.304Z,18.20
2022-08-07T08:34:48.252Z,18.30
2022-08-07T08:44:48.288Z,18.70
2022-08-07T08:47:52.562Z,18.90
2022-08-07T08:50:49.341Z,19.00
2022-08-07T08:53:53.424Z,19.20
2022-08-07T08:56:48.608Z,19.30
2022-08-07T08:59:48.377Z,19.40
2022-08-07T09:03:13.139Z,19.50
2022-08-07T09:06:12.127Z,19.70
2022-08-07T09:09:09.692Z,19.80
2022-08-07T09:12:30.762Z,19.90
2022-08-07T09:16:23.001Z,20.10
2022-08-07T09:19:51.218Z,20.20
2022-08-07T09:24:31.603Z,20.30
2022-08-07T09:26:20.922Z,20.40
2022-08-07T09:30:03.416Z,20.50
2022-08-07T09:33:05.519Z,20.60
2022-08-07T09:36:37.257Z,20.80
2022-08-07T09:39:54.017Z,21.00
2022-08-07T09:42:54.180Z,21.10
2022-08-07T09:47:24.822Z,21.20
2022-08-07T09:50:02.069Z,21.20
2022-08-07T09:52:42.139Z,21.40
2022-08-07T09:56:04.512Z,21.40
2022-08-07T09:59:14.500Z,21.50
2022-08-07T10:02:20.276Z,21.60
2022-08-07T10:05:59.436Z,21.60
2022-08-07T10:08:59.702Z,21.70
2022-08-07T10:12:40.618Z,21.80
2022-08-07T10:15:57.512Z,22.00
2022-08-07T10:19:11.340Z,22.20
2022-08-07T10:22:24.968Z,22.30
2022-08-07T10:26:31.454Z,22.50
2022-08-07T10:29:43.192Z,22.60
2022-08-07T10:33:06.878Z,22.70
2022-08-07T10:36:17.684Z,22.60
2022-08-07T10:39:41.959Z,22.70
2022-08-07T10:42:59.718Z,22.90
2022-08-07T10:45:58.303Z,23.00
2022-08-07T10:48:58.803Z,23.00
2022-08-07T10:52:01.573Z,23.10
2022-08-07T10:55:26.581Z,23.00
2022-08-07T10:58:40.180Z,23.10
2022-08-07T11:01:51.999Z,23.20
2022-08-07T11:05:10.233Z,23.30
2022-08-07T11:08:09.401Z,23.30
2022-08-07T11:11:07.258Z,23.50
2022-08-07T11:14:57.079Z,23.60
2022-08-07T11:17:23.189Z,23.70
2022-08-07T11:20:32.571Z,23.90
2022-08-07T11:23:30.645Z,24.20
2022-08-07T11:29:42.613Z,24.50
2022-08-07T11:32:40.548Z,24.60
2022-08-07T11:35:33.599Z,24.70
2022-08-07T11:38:31.332Z,24.80
2022-08-07T11:42:00.380Z,24.80
2022-08-07T11:44:51.957Z,24.90
2022-08-07T11:48:03.378Z,24.70
2022-08-07T11:51:10.687Z,24.70
2022-08-07T11:54:37.568Z,24.70
2022-08-07T11:57:59.860Z,24.90
2022-08-07T12:01:05.082Z,25.10
2022-08-07T12:04:32.865Z,25.40
2022-08-07T12:07:27.255Z,25.60
2022-08-07T12:10:23.256Z,25.70
2022-08-07T12:13:37.085Z,25.80
2022-08-07T12:16:31.114Z,25.80
2022-08-07T12:19:35.336Z,26.00
2022-08-07T12:22:56.185Z,26.10
2022-08-07T12:26:21.418Z,26.20
2022-08-07T12:29:08.745Z,26.40
2022-08-07T12:32:04.777Z,26.50
2022-08-07T12:34:56.533Z,26.20
2022-08-07T12:38:10.616Z,26.10
2022-08-07T12:41:03.789Z,26.00
2022-08-07T12:44:04.621Z,26.20
2022-08-07T12:47:09.343Z,26.30
2022-08-07T12:50:39.213Z,26.30
2022-08-07T12:53:21.946Z,26.50
2022-08-07T12:56:20.837Z,26.70
2022-08-07T12:59:20.722Z,26.90
2022-08-07T13:02:32.997Z,27.10
2022-08-07T13:06:02.690Z,27.10
2022-08-07T13:09:01.690Z,27.20
2022-08-07T13:12:13.406Z,27.30
2022-08-07T13:15:23.637Z,27.40
2022-08-07T13:18:31.827Z,27.40
2022-08-07T13:21:37.196Z,27.40
2022-08-07T13:24:43.920Z,27.50
2022-08-07T13:28:10.646Z,27.50
2022-08-07T13:31:06.413Z,27.50
2022-08-07T13:34:33.614Z,27.50
2022-08-07T13:37:30.089Z,27.40
2022-08-07T13:40:35.530Z,27.30
2022-08-07T13:43:34.407Z,27.30
2022-08-07T13:46:28.808Z,27.40
2022-08-07T13:50:35.196Z,27.60
2022-08-07T13:52:38.051Z,27.70
2022-08-07T13:55:30.978Z,27.90
2022-08-07T13:58:50.440Z,28.00
2022-08-07T14:01:59.423Z,28.00
2022-08-07T14:04:56.116Z,28.00
2022-08-07T14:07:59.611Z,28.00
2022-08-07T14:11:14.677Z,28.20
2022-08-07T14:14:09.093Z,28.40
2022-08-07T14:16:59.935Z,28.50
2022-08-07T14:20:42.588Z,28.30
2022-08-07T14:23:31.380Z,28.40
2022-08-07T14:26:34.392Z,28.50
2022-08-07T14:30:05.164Z,28.30
2022-08-07T14:32:45.558Z,28.30
2022-08-07T14:35:43.259Z,28.50
2022-08-07T14:38:37.151Z,28.90
2022-08-07T14:41:33.808Z,29.00
2022-08-07T14:44:39.036Z,29.20
2022-08-07T14:47:32.409Z,29.30
2022-08-07T14:50:24.475Z,29.60
2022-08-07T14:56:29.826Z,29.30
2022-08-07T15:00:06.126Z,29.20
2022-08-07T15:02:34.921Z,29.50
2022-08-07T15:05:27.219Z,29.30
2022-08-07T15:08:32.361Z,29.40
2022-08-07T15:14:34.991Z,29.80
2022-08-07T15:17:55.388Z,29.90
2022-08-07T15:20:55.154Z,29.90
2022-08-07T15:25:12.960Z,29.90
2022-08-07T15:27:05.113Z,30.00
2022-08-07T15:30:16.900Z,30.10
2022-08-07T15:39:27.520Z,30.60
2022-08-07T15:42:54.894Z,30.70
2022-08-07T15:45:55.834Z,30.40
2022-08-07T15:49:03.490Z,30.40
2022-08-07T15:54:53.468Z,30.70
2022-08-07T15:57:52.611Z,30.80
2022-08-07T16:00:51.034Z,30.90
2022-08-07T16:03:47.289Z,30.90
2022-08-07T16:06:38.245Z,30.90
2022-08-07T16:09:42.211Z,30.80
2022-08-07T16:12:41.076Z,30.80
2022-08-07T16:19:04.284Z,30.80
2022-08-07T16:22:17.937Z,30.90
2022-08-07T16:25:54.449Z,31.10
2022-08-07T16:30:09.587Z,31.20
2022-08-07T16:34:02.757Z,31.10
2022-08-07T16:37:02.979Z,31.20
2022-08-07T16:44:55.374Z,30.70
2022-08-07T16:48:15.917Z,30.70
2022-08-07T16:51:54.289Z,30.90
2022-08-07T16:55:47.184Z,30.90
2022-08-07T16:59:14.429Z,31.10
2022-08-07T17:02:09.500Z,31.10
2022-08-07T17:06:19.789Z,31.10
2022-08-07T17:09:09.746Z,31.20
2022-08-07T17:12:35.139Z,31.20
2022-08-07T17:15:44.477Z,31.10
2022-08-07T17:18:46.097Z,31.10
2022-08-07T17:21:50.758Z,31.10
2022-08-07T17:25:05.004Z,31.00
2022-08-07T17:28:01.669Z,30.90
2022-08-07T17:31:15.759Z,30.70
2022-08-07T17:34:34.044Z,30.70
2022-08-07T17:38:09.723Z,30.70
2022-08-07T17:40:50.494Z,30.60
2022-08-07T17:44:02.169Z,30.50
2022-08-07T17:47:00.872Z,30.50
2022-08-07T17:49:55.534Z,30.40
2022-08-07T17:52:52.320Z,30.30
2022-08-07T17:55:54.787Z,30.20
2022-08-07T17:59:00.612Z,30.10
2022-08-07T18:01:59.965Z,30.00
2022-08-07T18:04:53.048Z,29.80
2022-08-07T18:07:44.043Z,29.60
2022-08-07T18:12:07.257Z,29.50
2022-08-07T18:13:54.683Z,29.30
2022-08-07T18:16:57.899Z,28.90
2022-08-07T18:21:07.605Z,28.50
2022-08-07T18:23:42.585Z,28.00
2022-08-07T18:26:26.454Z,27.50
2022-08-07T18:30:08.389Z,27.00
2022-08-07T18:32:52.747Z,26.70
2022-08-07T18:35:55.644Z,26.40
2022-08-07T18:40:08.359Z,26.10
2022-08-07T18:42:22.238Z,25.80
2022-08-07T18:45:42.966Z,25.50
2022-08-07T18:50:19.275Z,25.30
2022-08-07T18:52:34.781Z,25.10
2022-08-07T18:55:42.541Z,24.90
2022-08-07T18:58:40.477Z,24.70
2022-08-07T19:02:34.107Z,24.50
2022-08-07T19:05:10.800Z,24.30
2022-08-07T19:08:11.365Z,24.10
2022-08-07T19:11:35.169Z,23.90
2022-08-07T19:14:36.803Z,23.80
2022-08-07T19:18:01.512Z,23.60
2022-08-07T19:21:08.384Z,23.40
2022-08-07T19:24:06.248Z,23.30
2022-08-07T19:28:30.700Z,23.20
2022-08-07T19:31:00.840Z,23.00
2022-08-07T19:33:34.643Z,23.00
2022-08-07T19:36:27.747Z,22.80
2022-08-07T19:39:40.361Z,22.70
2022-08-07T19:42:39.889Z,22.60
2022-08-07T19:46:06.079Z,22.50
2022-08-07T19:48:53.529Z,22.40
2022-08-07T19:51:50.891Z,22.30
2022-08-07T19:54:56.462Z,22.20
2022-08-07T19:58:02.037Z,22.10
2022-08-07T20:00:55.535Z,22.00
2022-08-07T20:03:44.390Z,21.90
2022-08-07T20:06:32.528Z,21.90
2022-08-07T20:10:35.817Z,21.80
2022-08-07T20:12:35.722Z,21.70
2022-08-07T20:15:33.097Z,21.50
2022-08-07T20:18:33.766Z,21.40
2022-08-07T20:21:24.991Z,21.30
2022-08-07T20:24:20.753Z,21.20
2022-08-07T20:27:11.715Z,21.20
2022-08-07T20:30:07.641Z,21.10
2022-08-07T20:33:01.071Z,21.00
2022-08-07T20:36:01.396Z,20.90
2022-08-07T20:39:00.703Z,20.90
2022-08-07T20:41:55.717Z,20.80
2022-08-07T20:44:49.595Z,20.70
2022-08-07T20:47:56.530Z,20.70
2022-08-07T20:50:47.097Z,20.70
2022-08-07T20:54:04.653Z,20.60
2022-08-07T20:56:51.663Z,20.50
2022-08-07T21:00:06.500Z,20.50
2022-08-07T21:03:01.910Z,20.40
2022-08-07T21:05:56.149Z,20.30
2022-08-07T21:08:48.128Z,20.20
2022-08-07T21:11:49.977Z,20.20
2022-08-07T21:14:48.360Z,20.10
2022-08-07T21:18:02.842Z,20.10
2022-08-07T21:20:59.381Z,20.00
2022-08-07T21:23:56.179Z,19.90
2022-08-07T21:26:57.590Z,19.90
2022-08-07T21:29:52.991Z,19.90
2022-08-07T21:32:51.989Z,19.80
2022-08-07T21:36:04.109Z,19.80
2022-08-07T21:39:46.854Z,19.70
2022-08-07T21:42:42.637Z,19.70
2022-08-07T21:46:07.868Z,19.60
2022-08-07T21:48:55.921Z,19.50
2022-08-07T21:52:11.364Z,19.50
2022-08-07T21:55:07.095Z,19.40
2022-08-07T21:58:07.556Z,19.30
2022-08-07T22:01:02.021Z,19.30
2022-08-07T22:04:00.645Z,19.10
2022-08-07T22:07:06.530Z,19.10
2022-08-07T22:09:58.743Z,19.00
2022-08-07T22:12:55.415Z,18.90
2022-08-07T22:16:39.927Z,18.90
2022-08-07T22:19:18.101Z,18.90
2022-08-07T22:22:20.849Z,18.80
2022-08-07T22:25:17.134Z,18.70
2022-08-07T22:28:31.073Z,18.60
2022-08-07T22:31:58.916Z,18.60
2022-08-07T22:34:49.732Z,18.50
2022-08-07T22:38:03.553Z,18.50
2022-08-07T22:40:59.847Z,18.50
2022-08-07T22:43:58.919Z,18.40
2022-08-07T22:47:23.398Z,18.30
2022-08-07T22:50:37.042Z,18.30
2022-08-07T22:54:06.976Z,18.20
2022-08-07T22:56:59.174Z,18.10
2022-08-07T22:59:55.414Z,18.00
2022-08-07T23:03:09.342Z,17.90
2022-08-07T23:06:16.828Z,17.90
2022-08-07T23:10:05.147Z,17.80
2022-08-07T23:12:54.608Z,17.70
2022-08-07T23:16:06.591Z,17.70
2022-08-07T23:19:48.053Z,17.70
2022-08-07T23:22:52.254Z,17.60
2022-08-07T23:26:01.039Z,17.60
2022-08-07T23:29:42.814Z,17.50
2022-08-07T23:34:23.956Z,17.40
2022-08-07T23:35:47.985Z,17.40
2022-08-07T23:39:00.207Z,17.40
2022-08-07T23:42:06.222Z,17.30
2022-08-07T23:45:07.827Z,17.30
2022-08-07T23:48:44.479Z,17.20
2022-08-07T23:52:59.825Z,17.20
2022-08-07T23:54:56.965Z,17.10
2022-08-07T23:57:54.248Z,17.10
